Aérodrome :
LOGIN :

S'inscrire | Disclaimer

   EN    FR    IT 

 










Légende :    VFR   VFR Marginal   IFR   IFR Intensif   IFR Très Intensif
Visi : 
Plafond : 
>= 8 km
>= 3000ft
5 à 8 km
1000 à 3000 ft
1500m à 5 km
500 à 1000 ft
800 à 1500m
200 à 500 ft
< 800m
< 200 ft
Symboles :   Orages  Brouillard  Fortes neiges  Fortes précipitations  Vent > 20 kt
SIGMETs :   Divers  Orages  Givrage  Turbulence  Onde Orograph.  Cendres Volcan.






- Altitude de l'aérodrome : 458 ft


LFSI - St-Dizier

DERNIER METAR :
  • 091000Z AUTO 20008KT 9999 BKN010 BKN041 OVC066 03/01 Q1008

METARs EXPIRÉS :
  • 090930Z AUTO 20006KT 170V230 9999 OVC009 03/01 Q1008
  • 090900Z AUTO 20005KT 150V240 9999 OVC008 02/01 Q1008
  • 090830Z AUTO 20006KT 160V230 9999 OVC007 02/01 Q1008
  • 090800Z AUTO 18006KT 150V220 9999 OVC007 02/01 Q1008
  • 090730Z AUTO 18005KT 150V220 9999 OVC005 01/00 Q1008

TAF TAF LFSI
Valide du 09 à 09h jusqu'au 10 à 09h UTC


090800Z 0909/1009 21008KT 9999 SCT009 BKN030 OVC040
TEMPO 0909/0911 23015G25KT 4000 -SNRA FEW030TCU
BECMG 0911/0914 BKN020 SCT040
FM100230 16010G20KT 8000 BKN010
PROB30 1003/1005 2000 -SNRA
TEMPO 1003/1008 4000 -RA BKN006



MET'MAP, la Météo Aéronautique d'un coup d'oeil ! - Copyright ORBIFLY Décembre 2007 - Disclaimer

ORBIFLY MET'MAP TEAM :

Programmation & Développement : Alexandra Zaïnal
Sur une idée originale de : Baudouin d'Aumeries
Assistance à la programmation : Marc-Olivier Méhu
Soutien technique & logistique : Manuel Goepfert

Contact : metmap@orbifly.com




SOURCES & CREDITS :

   NOAA